EHKD/DHR METAR and TAF weather

Enter ICAO airport designator
Station Type Date Time Source
EHKD METAR 2019/08/17 10:25 UTC NOAA

EHKD 171025Z AUTO 23014KT 200V260 9999 NCD 20/15 Q1004 BLU


Station Type Date Time Source
EHKD Decoded METAR 2019/08/17 10:25 UTC NOAA

Station name not available
Aug 17, 2019 - 06:25 AM EDT / 2019.08.17 1025 UTC
Wind: from the SW (230 degrees) at 16 MPH (14 KT) (direction variable):0
Visibility: greater than 7 mile(s):0
Temperature: 68 F (20 C)
Dew Point: 59 F (15 C)
Relative Humidity: 72%
Pressure (altimeter): 29.65 in. Hg (1004 hPa)
ob: EHKD 171025Z AUTO 23014KT 200V260 9999 NCD 20/15 Q1004 BLU
cycle: 10

Station Type Date Time Source
EHKD TAF 2019/08/17 09:06 UTC NOAA

TAF TAF EHKD 170841Z 1709/1721 23014G24KT 9999 FEW010 SCT020 BKN060
TEMPO 1709/1710 3000 DZRA FEW008 SCT010 BKN015 PROB40
TEMPO 1709/1712 24017G20KT 4000 -SHRA BKN006 BKN010 SCT014CB
BECMG 1710/1713 SCT022
BECMG 1715/1718 22013KT

Example: see airport list